Data for 02/15/2010

Time Sea-Level Adjusted Pressure Absolute Pressure Temperature Relative Humidity Dew Point   
(mb) (inHg) (mb) (inHg) (C) (F) (%) (C) (F)
00:05 1021 30.15 851 25.13 -1.1 30 74 -5.1 22.7
00:10 1021 30.15 851 25.13 -1.1 29.9 75 -4.9 23.1
00:15 1021 30.15 851 25.13 -1.3 29.6 76 -5 23
00:20 1021 30.15 851 25.13 -1.5 29.4 76 -5.1 22.8
00:25 1021 30.15 851 25.13 -1.8 28.8 77 -5.3 22.5
00:30 1021 30.15 851 25.13 -1.8 28.8 78 -5.2 22.7
00:35 1021 30.15 851 25.13 -1.7 29 77 -5.2 22.7
00:40 1021 30.15 851 25.13 -1.6 29.1 77 -5.1 22.8
00:45 1021 30.15 851 25.13 -1.4 29.5 76 -5.1 22.8
00:50 1021 30.15 851 25.13 -1.4 29.6 75 -5.2 22.7
00:55 1021 30.15 851 25.13 -1.4 29.4 76 -5.1 22.8
01:00 1021 30.15 851 25.13 -1.4 29.6 76 -5.1 22.8
01:05 1021 30.15 851 25.13 -1.5 29.4 76 -5.1 22.7
01:10 1021 30.15 851 25.13 -1.5 29.3 76 -5.3 22.5
01:15 1021 30.15 851 25.13 -1.5 29.2 75 -5.3 22.4
01:20 1021 30.15 851 25.13 -1.6 29.1 76 -5.3 22.4
01:25 1021 30.15 851 25.13 -1.7 29 78 -5 23
01:30 1021 30.15 851 25.13 -1.7 28.9 76 -5.3 22.4
01:35 1021 30.15 851 25.13 -1.7 28.9 79 -4.9 23.1
01:40 1021 30.15 851 25.13 -1.8 28.8 79 -4.9 23.2
01:45 1021 30.15 851 25.13 -1.8 28.8 78 -5.1 22.9
01:50 1021 30.15 851 25.13 -1.8 28.7 79 -5.1 22.8
01:55 1021 30.15 851 25.13 -1.8 28.7 79 -4.9 23.1
02:00 1021 30.15 851 25.13 -1.8 28.7 80 -4.8 23.4
02:05 1021 30.15 851 25.13 -1.9 28.7 81 -4.6 23.7
02:10 1021 30.15 851 25.13 -1.9 28.5 83 -4.5 23.9
02:15 1021 30.15 851 25.13 -2 28.4 84 -4.4 24.1
02:20 1021 30.15 851 25.13 -2 28.4 84 -4.3 24.2
02:25 1021 30.15 850 25.1 -2 28.4 85 -4.2 24.5
02:30 1021 30.15 850 25.1 -2 28.5 85 -4.2 24.4
02:35 1021 30.15 850 25.1 -2 28.4 84 -4.4 24.1
02:40 1021 30.15 850 25.1 -2.2 28 85 -4.4 24.1
02:45 1021 30.15 850 25.1 -2.4 27.7 86 -4.4 24.2
02:50 1021 30.15 850 25.1 -2.4 27.6 87 -4.3 24.3
02:55 1021 30.15 850 25.1 -2.4 27.6 88 -4.2 24.4
03:00 1021 30.15 850 25.1 -2.5 27.5 88 -4.2 24.5
03:05 1021 30.15 850 25.1 -2.5 27.5 89 -4.1 24.6
03:10 1021 30.15 850 25.1 -2.5 27.5 89 -4.1 24.7
03:15 1021 30.15 850 25.1 -2.5 27.5 90 -4 24.9
03:20 1021 30.15 850 25.1 -2.4 27.6 90 -3.9 24.9
03:25 1021 30.15 850 25.1 -2.4 27.7 90 -3.8 25.1
03:30 1021 30.15 850 25.1 -2.3 27.8 90 -3.8 25.2
03:35 1021 30.15 850 25.1 -2.3 27.9 91 -3.6 25.5
03:40 1021 30.15 850 25.1 -2.1 28.2 91 -3.4 25.8
03:45 1021 30.15 850 25.1 -2 28.3 91 -3.3 26
03:50 1021 30.15 850 25.1 -1.9 28.6 91 -3.2 26.2
03:55 1021 30.15 850 25.1 -1.9 28.6 91 -3.2 26.3
04:00 1021 30.15 850 25.1 -2 28.4 92 -3.2 26.3
04:05 1021 30.15 850 25.1 -2.1 28.2 92 -3.2 26.3
04:10 1021 30.15 850 25.1 -2.1 28.1 93 -3.1 26.5
04:15 1021 30.15 850 25.1 -2.1 28.3 94 -3 26.7
04:20 1021 30.15 850 25.1 -2.1 28.2 94 -3 26.6
04:25 1021 30.15 850 25.1 -2.1 28.2 94 -3 26.6
04:30 1021 30.15 850 25.1 -2.2 28.1 94 -3 26.6
04:35 1021 30.15 850 25.1 -2.2 28 94 -3 26.6
04:40 1021 30.15 850 25.1 -2.3 27.8 95 -3.1 26.5
04:45 1021 30.15 850 25.1 -2.4 27.7 95 -3.1 26.5
04:50 1021 30.15 850 25.1 -2.3 27.8 95 -3 26.6
04:55 1021 30.15 850 25.1 -2.2 28 95 -2.9 26.8
05:00 1021 30.15 850 25.1 -2.2 28 95 -2.9 26.8
05:05 1021 30.15 850 25.1 -2.2 28 95 -2.9 26.8
05:10 1021 30.15 850 25.1 -2.2 28 95 -2.9 26.8
05:15 1021 30.15 850 25.1 -2.1 28.1 95 -2.8 27
05:20 1021 30.15 850 25.1 -2.1 28.3 95 -2.7 27.1
05:25 1021 30.15 850 25.1 -2 28.3 95 -2.7 27.1
05:30 1021 30.15 850 25.1 -2 28.4 95 -2.7 27.1
05:35 1021 30.15 850 25.1 -2 28.4 95 -2.7 27.2
05:40 1021 30.15 850 25.1 -2 28.5 95 -2.7 27.2
05:45 1021 30.15 850 25.1 -2 28.5 95 -2.7 27.2
05:50 1021 30.15 850 25.1 -1.9 28.5 95 -2.7 27.2
05:55 1021 30.15 850 25.1 -1.9 28.5 95 -2.7 27.1
06:00 1021 30.15 850 25.1 -2 28.5 95 -2.7 27.1
06:05 1021 30.15 850 25.1 -2 28.4 95 -2.8 27
06:10 1021 30.15 850 25.1 -2 28.4 95 -2.8 27
06:15 1021 30.15 850 25.1 -2 28.3 95 -2.8 27
06:20 1021 30.15 850 25.1 -2.1 28.2 95 -2.8 27
06:25 1021 30.15 850 25.1 -2.2 28.1 95 -2.8 26.9
06:30 1021 30.15 850 25.1 -2.3 28 96 -2.9 26.8
06:35 1021 30.15 850 25.1 -2.3 27.9 96 -2.9 26.8
06:40 1021 30.15 850 25.1 -2.2 28.1 96 -2.7 27.1
06:45 1021 30.15 850 25.1 -2 28.4 96 -2.6 27.4
06:50 1021 30.15 850 25.1 -1.9 28.6 96 -2.5 27.5
06:55 1021 30.15 850 25.1 -1.9 28.5 95 -2.6 27.3
07:00 1021 30.15 850 25.1 -2 28.5 95 -2.6 27.2
07:05 1021 30.15 850 25.1 -1.9 28.5 95 -2.7 27.1
07:10 1021 30.15 850 25.1 -2 28.3 95 -2.7 27.2
07:15 1021 30.15 850 25.1 -2 28.5 95 -2.6 27.3
07:20 1021 30.15 850 25.1 -1.9 28.6 95 -2.6 27.4
07:25 1021 30.15 850 25.1 -1.9 28.5 95 -2.7 27.2
07:30 1021 30.15 850 25.1 -2 28.4 95 -2.6 27.2
07:35 1021 30.15 850 25.1 -2 28.5 95 -2.7 27.2
07:40 1021 30.15 850 25.1 -2.1 28.3 95 -2.8 27
07:45 1021 30.15 850 25.1 -2.1 28.2 95 -2.9 26.8
07:50 1021 30.15 850 25.1 -2.2 28 95 -2.9 26.7
07:55 1021 30.15 850 25.1 -2.2 28.1 95 -2.9 26.8
08:00 1021 30.15 850 25.1 -2.2 28 95 -2.9 26.8
08:05 1021 30.15 850 25.1 -2.1 28.3 95 -2.7 27.1
08:10 1021 30.15 850 25.1 -2 28.4 94 -2.8 27
08:15 1021 30.15 851 25.13 -2.1 28.3 95 -2.8 27
08:20 1021 30.15 851 25.13 -2 28.4 95 -2.7 27.1
08:25 1021 30.15 851 25.13 -1.9 28.6 94 -2.7 27.2
08:30 1021 30.15 851 25.13 -1.8 28.8 94 -2.6 27.3
08:35 1021 30.15 851 25.13 -1.6 29.2 93 -2.5 27.5
08:40 1021 30.15 851 25.13 -1.5 29.4 92 -2.6 27.3
08:45 1021 30.15 851 25.13 -1.7 29 92 -2.8 27
08:50 1022 30.18 851 25.13 -1.7 28.9 93 -2.7 27.2
08:55 1022 30.18 851 25.13 -1.6 29.1 92 -2.7 27.2
09:00 1022 30.18 851 25.13 -1.6 29.1 92 -2.7 27.1
09:05 1022 30.18 851 25.13 -1.7 29 93 -2.7 27.1
09:10 1022 30.18 851 25.13 -1.7 28.9 93 -2.7 27.1
09:15 1022 30.18 851 25.13 -1.7 28.9 93 -2.8 27
09:20 1022 30.18 851 25.13 -1.7 28.9 94 -2.6 27.2
09:25 1022 30.18 851 25.13 -1.6 29.1 93 -2.6 27.4
09:30 1022 30.18 851 25.13 -1.5 29.2 93 -2.5 27.5
09:35 1022 30.18 851 25.13 -1.5 29.3 93 -2.5 27.5
09:40 1022 30.18 851 25.13 -1.4 29.5 92 -2.5 27.6
09:45 1022 30.18 851 25.13 -1.2 29.9 92 -2.2 28
09:50 1022 30.18 851 25.13 -0.8 30.6 91 -2 28.3
09:55 1022 30.18 851 25.13 -0.6 31 89 -2.1 28.2
10:00 1022 30.18 851 25.13 -0.6 30.8 91 -2 28.4
10:05 1022 30.18 851 25.13 -0.7 30.7 90 -2.1 28.2
10:10 1022 30.18 851 25.13 -0.8 30.5 91 -2.1 28.3
10:15 1022 30.18 851 25.13 -0.6 30.9 90 -2 28.4
10:20 1022 30.18 851 25.13 -0.2 31.6 89 -1.9 28.7
10:25 1022 30.18 851 25.13 0.1 32.2 87 -1.7 28.9
10:30 1022 30.18 851 25.13 0.4 32.8 85 -1.8 28.8
10:35 1022 30.18 851 25.13 0.6 33.1 85 -1.6 29
10:40 1022 30.18 851 25.13 0.7 33.2 85 -1.6 29.1
10:45 1022 30.18 851 25.13 1.2 34.1 82 -1.7 29
10:50 1022 30.18 852 25.16 1.5 34.7 80 -1.7 29
10:55 1022 30.18 852 25.16 1.5 34.7 80 -1.6 29.1
11:00 1022 30.18 852 25.16 1.4 34.5 81 -1.5 29.2
11:05 1022 30.18 852 25.16 1.3 34.3 81 -1.5 29.2
11:10 1022 30.18 852 25.16 1.1 33.9 82 -1.7 29
11:15 1022 30.18 852 25.16 0.8 33.5 84 -1.6 29.1
11:20 1022 30.18 852 25.16 0.6 33 85 -1.6 29.1
11:25 1022 30.18 852 25.16 0.6 33.1 84 -1.8 28.8
11:30 1022 30.18 852 25.16 1 33.7 82 -1.7 28.9
11:35 1022 30.18 852 25.16 1.3 34.3 81 -1.6 29.1
11:40 1022 30.18 852 25.16 1.2 34.2 81 -1.6 29
11:45 1022 30.18 852 25.16 1.1 34 80 -2 28.4
11:50 1022 30.18 852 25.16 1.7 35 77 -1.9 28.5
11:55 1022 30.18 852 25.16 1.9 35.4 77 -1.8 28.8
12:00 1022 30.18 852 25.16 2.2 35.9 75 -1.8 28.8
12:05 1022 30.18 852 25.16 2.2 36 76 -1.6 29
12:10 1022 30.18 852 25.16 2 35.6 78 -1.5 29.3
12:15 1022 30.18 852 25.16 1.9 35.4 78 -1.6 29
12:20 1022 30.18 852 25.16 1.9 35.4 78 -1.6 29.2
12:25 1022 30.18 852 25.16 2.2 36 76 -1.5 29.3
12:30 1022 30.18 852 25.16 2.3 36.2 77 -1.4 29.5
12:35 1022 30.18 852 25.16 2.2 36 77 -1.4 29.4
12:40 1022 30.18 852 25.16 2.2 35.9 76 -1.6 29.1
12:45 1022 30.18 851 25.13 2.3 36.2 77 -1.2 29.8
12:50 1022 30.18 851 25.13 2.5 36.4 76 -1.3 29.7
12:55 1022 30.18 851 25.13 2.5 36.5 76 -1.3 29.7
13:00 1022 30.18 851 25.13 2.7 36.9 78 -0.8 30.6
13:05 1022 30.18 851 25.13 2.7 36.8 77 -0.9 30.4
13:10 1022 30.18 851 25.13 2.2 36 81 -0.8 30.6
13:15 1022 30.18 851 25.13 2.2 36 79 -1 30.2
13:20 1022 30.18 851 25.13 2.4 36.3 79 -0.8 30.5
13:25 1022 30.18 851 25.13 2.5 36.6 80 -0.5 31.1
13:30 1022 30.18 851 25.13 2.5 36.6 78 -0.9 30.4
13:35 1022 30.18 851 25.13 1.8 35.2 82 -0.9 30.4
13:40 1022 30.18 851 25.13 1.9 35.5 82 -0.9 30.4
13:45 1022 30.18 851 25.13 1.8 35.2 83 -0.8 30.6
13:50 1022 30.18 851 25.13 2.1 35.8 82 -0.6 31
13:55 1022 30.18 851 25.13 2.2 36 83 -0.4 31.2
14:00 1022 30.18 851 25.13 2.4 36.4 81 -0.5 31.2
14:05 1022 30.18 851 25.13 2.3 36.2 82 -0.4 31.2
14:10 1022 30.18 851 25.13 1.8 35.3 84 -0.6 30.9
14:15 1022 30.18 851 25.13 2 35.7 82 -0.6 30.8
14:20 1022 30.18 851 25.13 2.7 36.8 80 -0.5 31.1
14:25 1022 30.18 851 25.13 2.9 37.2 79 -0.4 31.3
14:30 1022 30.18 851 25.13 2.8 37.1 81 -0.1 31.8
14:35 1022 30.18 851 25.13 2.8 37.1 79 -0.4 31.2
14:40 1022 30.18 851 25.13 2.6 36.7 80 -0.5 31.2
14:45 1022 30.18 851 25.13 2.7 36.9 80 -0.5 31.2
14:50 1022 30.18 851 25.13 3.2 37.8 76 -0.5 31.1
14:55 1022 30.18 851 25.13 3.5 38.2 75 -0.6 30.9
15:00 1022 30.18 851 25.13 2.8 37.1 80 -0.3 31.4
15:05 1022 30.18 851 25.13 2.9 37.2 79 -0.4 31.2
15:10 1022 30.18 851 25.13 3.2 37.7 78 -0.3 31.5
15:15 1022 30.18 851 25.13 3.2 37.8 77 -0.5 31.2
15:20 1022 30.18 851 25.13 3.1 37.6 78 -0.3 31.4
15:25 1022 30.18 851 25.13 3.2 37.8 76 -0.6 30.9
15:30 1022 30.18 851 25.13 3.3 37.9 76 -0.5 31.1
15:35 1022 30.18 851 25.13 3.2 37.8 77 -0.5 31.1
15:40 1022 30.18 851 25.13 3.2 37.7 77 -0.5 31.1
15:45 1022 30.18 851 25.13 3.1 37.6 78 -0.4 31.2
15:50 1022 30.18 851 25.13 3.4 38.1 76 -0.4 31.2
15:55 1022 30.18 851 25.13 3.2 37.7 79 -0.2 31.7
16:00 1022 30.18 851 25.13 2.7 36.9 81 -0.3 31.5
16:05 1022 30.18 851 25.13 2.2 35.9 81 -0.7 30.7
16:10 1022 30.18 851 25.13 2.3 36.1 80 -0.8 30.6
16:15 1022 30.18 851 25.13 2.4 36.3 80 -0.7 30.7
16:20 1022 30.18 851 25.13 2.5 36.4 80 -0.6 31
16:25 1022 30.18 851 25.13 2.2 36 81 -0.6 30.8
16:30 1022 30.18 851 25.13 2 35.6 82 -0.8 30.5
16:35 1022 30.18 851 25.13 2.2 35.9 82 -0.6 30.9
16:40 1022 30.18 851 25.13 2.3 36.2 81 -0.7 30.8
16:45 1022 30.18 851 25.13 2.4 36.4 81 -0.5 31.1
16:50 1022 30.18 851 25.13 2.5 36.5 80 -0.6 31
16:55 1022 30.18 851 25.13 2.4 36.4 81 -0.5 31
17:00 1022 30.18 851 25.13 2.3 36.1 81 -0.6 30.9
17:05 1022 30.18 851 25.13 2.2 35.9 82 -0.6 30.9
17:10 1022 30.18 851 25.13 2.2 35.9 81 -0.7 30.7
17:15 1022 30.18 851 25.13 2.2 35.9 82 -0.6 30.9
17:20 1022 30.18 851 25.13 2.2 36 81 -0.7 30.7
17:25 1022 30.18 851 25.13 2.2 36 82 -0.6 31
17:30 1022 30.18 851 25.13 2.2 36 82 -0.5 31.1
17:35 1022 30.18 851 25.13 2.2 36 82 -0.5 31.1
17:40 1022 30.18 851 25.13 2.2 35.9 82 -0.6 30.9
17:45 1022 30.18 851 25.13 2 35.6 82 -0.7 30.8
17:50 1022 30.18 851 25.13 2 35.6 83 -0.6 30.9
17:55 1022 30.18 851 25.13 1.8 35.3 84 -0.6 30.9
18:00 1022 30.18 851 25.13 1.6 35 85 -0.7 30.8
18:05 1022 30.18 852 25.16 1.4 34.6 86 -0.7 30.7
18:10 1022 30.18 852 25.16 1.3 34.4 86 -0.8 30.6
18:15 1022 30.18 852 25.16 1.3 34.3 86 -0.8 30.5
18:20 1022 30.18 852 25.16 1.2 34.1 86 -0.8 30.5
18:25 1022 30.18 852 25.16 1.1 34 87 -0.8 30.6
18:30 1022 30.18 852 25.16 1.2 34.2 87 -0.8 30.6
18:35 1022 30.18 852 25.16 1.1 34 87 -0.8 30.6
18:40 1023 30.21 852 25.16 1.1 34 87 -0.8 30.5
18:45 1023 30.21 852 25.16 1.3 34.3 86 -0.8 30.6
18:50 1023 30.21 852 25.16 1.4 34.6 85 -0.8 30.6
18:55 1023 30.21 852 25.16 1.6 34.8 85 -0.7 30.7
19:00 1023 30.21 852 25.16 1.7 35 85 -0.6 30.9
19:05 1023 30.21 852 25.16 1.7 35.1 84 -0.6 30.8
19:10 1023 30.21 852 25.16 1.6 34.8 85 -0.8 30.6
19:15 1023 30.21 852 25.16 1.7 35 83 -0.8 30.5
19:20 1023 30.21 852 25.16 1.7 35 84 -0.8 30.6
19:25 1023 30.21 852 25.16 1.7 35 85 -0.6 30.9
19:30 1022 30.18 852 25.16 1.5 34.7 86 -0.6 30.9
19:35 1023 30.21 852 25.16 1.4 34.5 87 -0.5 31
19:40 1023 30.21 852 25.16 1.3 34.4 88 -0.5 31.1
19:45 1023 30.21 852 25.16 1.2 34.1 88 -0.6 30.9
19:50 1023 30.21 852 25.16 1 33.8 89 -0.7 30.7
19:55 1022 30.18 852 25.16 1 33.8 88 -0.8 30.6
20:00 1022 30.18 852 25.16 1 33.7 88 -0.7 30.7
20:05 1023 30.21 852 25.16 0.9 33.7 88 -0.8 30.5
20:10 1023 30.21 852 25.16 0.9 33.6 88 -0.9 30.4
20:15 1023 30.21 852 25.16 1 33.8 87 -0.9 30.4
20:20 1023 30.21 852 25.16 1.2 34.1 87 -0.8 30.6
20:25 1023 30.21 852 25.16 1.3 34.4 86 -0.7 30.7
20:30 1023 30.21 852 25.16 1.5 34.6 86 -0.7 30.8
20:35 1022 30.18 852 25.16 1.3 34.4 87 -0.7 30.8
20:40 1022 30.18 852 25.16 1.2 34.1 88 -0.6 30.9
20:45 1022 30.18 852 25.16 1.1 33.9 89 -0.6 30.9
20:50 1022 30.18 852 25.16 1 33.7 89 -0.6 30.9
20:55 1022 30.18 852 25.16 0.8 33.4 90 -0.6 30.8
21:00 1022 30.18 852 25.16 0.8 33.4 90 -0.7 30.8
21:05 1022 30.18 852 25.16 0.8 33.4 90 -0.6 30.9
21:10 1022 30.18 852 25.16 0.7 33.3 90 -0.7 30.7
21:15 1022 30.18 852 25.16 0.6 33.1 91 -0.8 30.6
21:20 1022 30.18 852 25.16 0.6 33 91 -0.8 30.6
21:25 1022 30.18 852 25.16 0.6 33 91 -0.8 30.5
21:30 1022 30.18 852 25.16 0.5 33 90 -0.9 30.4
21:35 1022 30.18 852 25.16 0.5 32.9 90 -0.9 30.4
21:40 1022 30.18 852 25.16 0.5 32.8 90 -1 30.3
21:45 1022 30.18 852 25.16 0.5 32.9 90 -1 30.2
21:50 1022 30.18 851 25.13 0.5 33 90 -1 30.3
21:55 1022 30.18 851 25.13 0.6 33.1 89 -1 30.2
22:00 1022 30.18 851 25.13 0.7 33.2 89 -1 30.2
22:05 1022 30.18 851 25.13 0.7 33.3 88 -1 30.2
22:10 1022 30.18 851 25.13 0.7 33.3 89 -0.9 30.4
22:15 1022 30.18 851 25.13 0.6 33.1 90 -0.9 30.4
22:20 1022 30.18 851 25.13 0.6 33.1 90 -0.9 30.3
22:25 1022 30.18 851 25.13 0.6 33.2 89 -1 30.2
22:30 1022 30.18 851 25.13 0.7 33.2 89 -1 30.2
22:35 1022 30.18 851 25.13 0.7 33.3 87 -1.1 30
22:40 1022 30.18 851 25.13 0.7 33.3 88 -1.1 30
22:45 1022 30.18 851 25.13 0.7 33.2 87 -1.2 29.8
22:50 1022 30.18 851 25.13 0.6 33.1 88 -1.2 29.8
22:55 1022 30.18 851 25.13 0.5 32.9 88 -1.3 29.7
23:00 1022 30.18 851 25.13 0.5 32.8 88 -1.3 29.7
23:05 1022 30.18 851 25.13 0.4 32.8 88 -1.4 29.5
23:10 1022 30.18 851 25.13 0.4 32.7 88 -1.4 29.5
23:15 1022 30.18 852 25.16 0.4 32.7 88 -1.4 29.5
23:20 1022 30.18 852 25.16 0.1 32.3 89 -1.5 29.3
23:25 1022 30.18 852 25.16 0 32.1 87 -1.8 28.7
23:30 1022 30.18 852 25.16 -0.1 31.8 88 -1.9 28.6
23:35 1022 30.18 852 25.16 -0.2 31.6 88 -1.9 28.5
23:40 1022 30.18 852 25.16 -0.5 31.2 89 -2 28.4
23:45 1022 30.18 852 25.16 -0.7 30.8 90 -2.1 28.3
23:50 1022 30.18 852 25.16 -1 30.3 91 -2.2 28.1
23:55 1023 30.21 852 25.16 -1.2 29.8 93 -2.2 28.1
24:00 1023 30.21 852 25.16 -1.3 29.6 94 -2.2 28